Дата Пункты Температура Давл., мм. Влажн., % Ветер Погодные явления
Воздуха Воды Направл. Скорость
03.09.18 06:00 Одесса 28.0 24.0 757 31 В 2 18 ЧАСОВ
03.09.18 03:00 Одесса 28.0 24.0 758 42 В 2 15 ЧАСОВ
03.09.18 12:00 Одесса 28.0 23.0 759 36 В 4 12 ЧАСОВ
03.09.18 09:00 Одесса 25.0 23.0 759 41 С 2 09 ЧАСОВ
03.09.18 06:00 Одесса 20.0 24.0 759 60 С 0 06 ЧАСОВ
03.09.18 03:00 Одесса 25.0 24.0 760 57 В 3 03 ЧАСА
02.09.18 09:00 Одесса 24.0 24.0 760 54 С 0 21 ЧАС
02.09.18 06:00 Одесса 30.0 24.0 759 33 С 0 18 ЧАСОВ
02.09.18 03:00 Одесса 31.0 24.0 760 34 Ю 2 15 ЧАСОВ
02.09.18 12:00 Одесса 30.0 24.0 760 39 С-В 2 12 ЧАСОВ
02.09.18 09:00 Одесса 25.0 24.0 760 51 С-З 1 09 ЧАСОВ
02.09.18 06:00 Одесса 22.0 24.0 760 58 С 0 06 ЧАСОВ
02.09.18 03:00 Одесса 24.0 24.0 759 52 С-З 1 03 ЧАСА
01.09.18 09:00 Одесса 27.0 25.0 759 36 С-З 1 21 ЧАС
01.09.18 06:00 Одесса 32.0 25.0 759 29 С 0 18 ЧАСОВ
01.09.18 03:00 Одесса 33.0 25.0 759 27 В 1 15 ЧАСОВ
01.09.18 12:00 Одесса 32.0 24.0 760 33 С 2 12 ЧАСОВ
01.09.18 09:00 Одесса 25.0 24.0 760 49 С-З 2 09 ЧАСОВ
01.09.18 06:00 Одесса 22.0 24.0 759 56 С-З 3 06 ЧАСОВ
01.09.18 03:00 Одесса 24.0 24.0 759 48 С 1 03 ЧАСА
Количество строк
1 2 3 4 5 6 7 8 9 10
Page 8 of 407